Airfield :
LOGIN :

Register | Disclaimer

   EN    FR    IT 

 










Legend :    VFR   Marginal VFR   IFR   Intensive IFR   Very Intensive IFR
Visi :
Ceiling :
>= 8 km
>= 3000ft
5 to 8 km
1000 to 3000 ft
1500m to 5 km
500 to 1000 ft
800 to 1500m
200 to 500 ft
< 800m
< 200 ft
Symbols :   Thunderstorms  Fog  Heavy snow  Heavy precipitations  Wind > 20 kt
SIGMETs :     Misc.  Thunderstorms  Icing  Turbulence  Mountain Waves  Volcanic Ashes






- Airport Elevation : 27 ft
- IATA code : PMI


LEPA - Palma de Mallorca

CURRENT METAR :
  • 290230Z 02003KT 9999 FEW030 14/12 Q1019 NOSIG

EXPIRED METARs :
  • 290200Z 04003KT 9999 FEW030 13/12 Q1019 NOSIG
  • 290130Z 01004KT 9999 FEW030 14/12 Q1019 NOSIG
  • 290100Z 00000KT 9999 FEW030 15/13 Q1019 NOSIG
  • 290030Z 04003KT 9999 FEW030 14/12 Q1019 NOSIG
  • 290000Z VRB02KT 9999 FEW030 15/12 Q1019 NOSIG

TAF TAF LEPA
Valid from the 29 at 00:00 until the 30 at 00:00 UTC


282300Z 2900/2924 05004KT 9999 FEW030 TX27/2912Z TN14/2906Z
BECMG 2911/2913 22010KT
BECMG 2917/2920 05004KT



MET'MAP, your aeronautical weather chart ! - Copyright ORBIFLY December 2007 - Disclaimer

ORBIFLY MET'MAP TEAM :

Programming & Development : Alexandra Zaïnal
Concept & original design : Baudouin d'Aumeries
Assistance for programming : Marc-Olivier Méhu
Technical & hardware support : Manuel Goepfert

Contact : metmap@orbifly.com




SOURCES & CREDITS :

   NOAA